Time;durP1;ratioP1;P1;durP2;ratioP2;P2;SDS_P1;SDS_P2;PMS_P1;PMS_P2;Temp;Humidity;BMP_temperature;BMP_pressure;BME280_temperature;BME280_humidity;BME280_pressure;Samples;Min_cycle;Max_cycle;Signal;HPM_P1;HPM_P2
2022/02/17 00:00:45;;;;;;;13.77;4.30;;;;;;;;;;6184158;28;20238;-65
2022/02/17 00:04:05;;;;;;;10.27;3.50;;;;;;;;;;6185631;28;20234;-65
2022/02/17 00:07:26;;;;;;;15.87;4.33;;;;;;;;;;6190292;28;20238;-65
2022/02/17 00:10:46;;;;;;;14.23;5.50;;;;;;;;;;6189182;28;20229;-64
2022/02/17 00:14:07;;;;;;;11.17;3.93;;;;;;;;;;6190933;28;20225;-64
2022/02/17 00:17:29;;;;;;;6.33;3.23;;;;;;;;;;6190821;28;20234;-64
2022/02/17 00:20:49;;;;;;;14.60;4.10;;;;;;;;;;6187512;28;20241;-65
2022/02/17 00:24:09;;;;;;;17.60;6.00;;;;;;;;;;6189217;28;20949;-65
2022/02/17 00:27:31;;;;;;;19.73;5.47;;;;;;;;;;6191867;28;20242;-64
2022/02/17 00:30:52;;;;;;;16.80;5.00;;;;;;;;;;6185437;28;20226;-64
2022/02/17 00:34:14;;;;;;;16.30;4.67;;;;;;;;;;6192415;28;20237;-64
2022/02/17 00:37:34;;;;;;;16.23;6.23;;;;;;;;;;6167320;28;20230;-64
2022/02/17 00:40:56;;;;;;;20.13;6.27;;;;;;;;;;6184890;28;20233;-64
2022/02/17 00:44:17;;;;;;;9.13;4.57;;;;;;;;;;6174888;28;20242;-64
2022/02/17 00:47:38;;;;;;;15.03;6.13;;;;;;;;;;6187063;28;20230;-63
2022/02/17 00:51:00;;;;;;;15.77;5.50;;;;;;;;;;6187394;28;20549;-64
2022/02/17 00:54:20;;;;;;;21.30;5.80;;;;;;;;;;6173005;28;20225;-65
2022/02/17 00:57:41;;;;;;;14.23;4.40;;;;;;;;;;6185833;28;20226;-64
2022/02/17 01:01:02;;;;;;;16.33;5.37;;;;;;;;;;6186300;28;20230;-64
2022/02/17 01:04:23;;;;;;;18.63;4.63;;;;;;;;;;6187944;28;20257;-64
2022/02/17 01:07:45;;;;;;;11.33;3.57;;;;;;;;;;6190069;28;20250;-64
2022/02/17 01:11:06;;;;;;;10.13;3.37;;;;;;;;;;6187464;28;20234;-63
2022/02/17 01:14:26;;;;;;;9.60;4.30;;;;;;;;;;6188637;28;20230;-64
2022/02/17 01:17:47;;;;;;;13.47;4.37;;;;;;;;;;6173300;28;20233;-62
2022/02/17 01:21:07;;;;;;;15.30;4.70;;;;;;;;;;6174576;28;20985;-66
2022/02/17 01:24:29;;;;;;;12.23;5.10;;;;;;;;;;6149476;28;20534;-65
2022/02/17 01:27:53;;;;;;;12.40;3.93;;;;;;;;;;6171974;28;20772;-65
2022/02/17 01:31:16;;;;;;;16.10;4.40;;;;;;;;;;6173892;28;20777;-64
2022/02/17 01:34:37;;;;;;;15.30;5.00;;;;;;;;;;6187431;28;20265;-64
2022/02/17 01:37:58;;;;;;;11.33;3.63;;;;;;;;;;6170760;28;20233;-65
2022/02/17 01:41:21;;;;;;;15.40;4.97;;;;;;;;;;6171643;28;20257;-66
2022/02/17 01:44:42;;;;;;;9.60;3.40;;;;;;;;;;6176640;28;20237;-65
2022/02/17 01:48:03;;;;;;;10.63;4.13;;;;;;;;;;6171322;28;20310;-65
2022/02/17 01:51:28;;;;;;;15.47;7.03;;;;;;;;;;6173333;28;20241;-65
2022/02/17 01:54:49;;;;;;;7.07;2.80;;;;;;;;;;6186937;28;20245;-64
2022/02/17 01:58:11;;;;;;;10.30;3.60;;;;;;;;;;6188361;28;20313;-63
2022/02/17 02:01:32;;;;;;;15.30;4.13;;;;;;;;;;6172390;28;20269;-64
2022/02/17 02:04:53;;;;;;;9.63;3.60;;;;;;;;;;6174749;28;20233;-65
2022/02/17 02:08:14;;;;;;;16.23;3.47;;;;;;;;;;6187556;28;20234;-63
2022/02/17 02:11:34;;;;;;;10.50;4.00;;;;;;;;;;6171959;28;20226;-64
2022/02/17 02:15:00;;;;;;;11.67;3.40;;;;;;;;;;6186668;28;20272;-64
2022/02/17 02:18:23;;;;;;;12.07;3.33;;;;;;;;;;6172921;28;20261;-63
2022/02/17 02:21:47;;;;;;;10.03;3.07;;;;;;;;;;6185099;28;20230;-63
2022/02/17 02:25:09;;;;;;;9.67;3.33;;;;;;;;;;6172728;28;20233;-64
2022/02/17 02:28:33;;;;;;;16.73;3.80;;;;;;;;;;6166079;28;20253;-64
2022/02/17 02:31:57;;;;;;;11.83;3.50;;;;;;;;;;6170112;28;20305;-65
2022/02/17 02:35:17;;;;;;;14.87;3.50;;;;;;;;;;6189448;28;20249;-63
2022/02/17 02:38:39;;;;;;;17.43;6.37;;;;;;;;;;6173464;28;20225;-65
2022/02/17 02:42:00;;;;;;;13.50;4.30;;;;;;;;;;6170225;28;20590;-64
2022/02/17 02:45:20;;;;;;;10.30;3.07;;;;;;;;;;6171424;28;20495;-64
2022/02/17 02:48:41;;;;;;;9.83;3.97;;;;;;;;;;6172706;28;20221;-64
2022/02/17 02:52:05;;;;;;;14.17;3.80;;;;;;;;;;6164024;28;20238;-64
2022/02/17 02:55:39;;;;;;;12.33;4.60;;;;;;;;;;6170486;28;20225;-64
2022/02/17 02:58:59;;;;;;;10.90;3.17;;;;;;;;;;6176816;28;20314;-65
2022/02/17 03:02:20;;;;;;;14.30;4.80;;;;;;;;;;6171106;28;20234;-64
2022/02/17 03:05:40;;;;;;;11.47;3.83;;;;;;;;;;6181533;28;20225;-64
2022/02/17 03:09:01;;;;;;;13.40;4.20;;;;;;;;;;6179635;28;20233;-66
2022/02/17 03:12:25;;;;;;;15.30;6.03;;;;;;;;;;6176505;28;20226;-64
2022/02/17 03:15:46;;;;;;;13.27;4.13;;;;;;;;;;6176823;28;20324;-64
2022/02/17 03:19:07;;;;;;;11.90;3.53;;;;;;;;;;6175798;28;20229;-63
2022/02/17 03:22:28;;;;;;;13.93;3.80;;;;;;;;;;6188538;28;20273;-65
2022/02/17 03:25:51;;;;;;;10.43;4.33;;;;;;;;;;6176142;28;20226;-64
2022/02/17 03:29:16;;;;;;;13.13;3.83;;;;;;;;;;6181128;28;20610;-64
2022/02/17 03:32:40;;;;;;;13.63;4.97;;;;;;;;;;6189979;28;20324;-65
2022/02/17 03:36:02;;;;;;;10.33;3.57;;;;;;;;;;6177544;28;20592;-64
2022/02/17 03:39:22;;;;;;;13.17;6.40;;;;;;;;;;6195227;28;20234;-63
2022/02/17 03:43:04;;;;;;;12.57;4.20;;;;;;;;;;6191485;28;20507;-64
2022/02/17 03:46:28;;;;;;;10.07;3.53;;;;;;;;;;6178367;28;20340;-65
2022/02/17 03:49:49;;;;;;;19.00;5.03;;;;;;;;;;6179511;28;20564;-64
2022/02/17 03:53:09;;;;;;;10.23;4.47;;;;;;;;;;6178254;28;20643;-64
2022/02/17 03:56:36;;;;;;;14.33;4.83;;;;;;;;;;6179140;28;20237;-65
2022/02/17 04:00:11;;;;;;;14.97;5.17;;;;;;;;;;6180566;28;20221;-64
2022/02/17 04:03:42;;;;;;;10.53;3.87;;;;;;;;;;6190158;28;20233;-65
2022/02/17 04:07:03;;;;;;;14.63;3.97;;;;;;;;;;6174794;28;20230;-65
2022/02/17 04:10:26;;;;;;;13.37;3.83;;;;;;;;;;6179991;28;20250;-64
2022/02/17 04:13:49;;;;;;;13.10;4.40;;;;;;;;;;6175876;28;20257;-64
2022/02/17 04:17:16;;;;;;;14.03;4.93;;;;;;;;;;6173273;28;20655;-64
2022/02/17 04:21:05;;;;;;;14.20;4.20;;;;;;;;;;6190378;28;20233;-65
2022/02/17 04:24:40;;;;;;;14.63;5.90;;;;;;;;;;6164027;28;20608;-64
2022/02/17 04:28:01;;;;;;;12.50;3.93;;;;;;;;;;6187484;28;20841;-65
2022/02/17 04:31:22;;;;;;;14.00;4.80;;;;;;;;;;6190361;28;20231;-64
2022/02/17 04:34:44;;;;;;;16.10;5.13;;;;;;;;;;6171368;28;20708;-63
2022/02/17 04:38:07;;;;;;;14.07;5.60;;;;;;;;;;6175895;28;20233;-64
2022/02/17 04:45:18;;;;;;;9.00;4.00;;;;;;;;;;6170321;28;20229;-63
2022/02/17 04:48:40;;;;;;;13.33;4.57;;;;;;;;;;6171137;28;20344;-65
2022/02/17 04:52:05;;;;;;;7.97;3.93;;;;;;;;;;6172641;28;20237;-64
2022/02/17 04:55:27;;;;;;;13.33;4.63;;;;;;;;;;6187288;28;20351;-64
2022/02/17 04:58:49;;;;;;;16.30;4.87;;;;;;;;;;6171638;28;20241;-65
2022/02/17 05:02:10;;;;;;;17.80;5.23;;;;;;;;;;6185218;28;20233;-63
2022/02/17 05:05:52;;;;;;;12.50;4.90;;;;;;;;;;6185892;28;20577;-64
2022/02/17 05:09:14;;;;;;;12.53;4.63;;;;;;;;;;6184572;28;20260;-63
2022/02/17 05:12:42;;;;;;;11.03;3.97;;;;;;;;;;6168159;28;20230;-63
2022/02/17 05:16:03;;;;;;;9.10;3.77;;;;;;;;;;6185258;28;20264;-64
2022/02/17 05:19:23;;;;;;;15.33;5.27;;;;;;;;;;6174089;28;20234;-64
2022/02/17 05:23:06;;;;;;;11.77;4.17;;;;;;;;;;6184778;28;20324;-64
2022/02/17 05:26:50;;;;;;;16.03;5.87;;;;;;;;;;6182528;28;20316;-65
2022/02/17 05:30:24;;;;;;;18.30;5.37;;;;;;;;;;6171641;28;20237;-64
2022/02/17 05:34:18;;;;;;;14.90;5.60;;;;;;;;;;6187150;28;20324;-63
2022/02/17 05:38:13;;;;;;;12.50;5.20;;;;;;;;;;6098754;28;20233;-64
2022/02/17 05:42:00;;;;;;;19.97;6.60;;;;;;;;;;6172345;28;20237;-63
2022/02/17 05:45:20;;;;;;;18.23;4.83;;;;;;;;;;6183459;28;20542;-62
2022/02/17 05:48:42;;;;;;;13.43;4.47;;;;;;;;;;6190677;28;20226;-64
2022/02/17 05:52:03;;;;;;;14.70;4.53;;;;;;;;;;6185136;28;20260;-65
2022/02/17 05:55:24;;;;;;;12.83;4.40;;;;;;;;;;6185468;28;20238;-64
2022/02/17 05:58:45;;;;;;;14.67;5.40;;;;;;;;;;6185748;28;20238;-65
2022/02/17 06:02:06;;;;;;;19.53;4.47;;;;;;;;;;6182987;28;20657;-65
2022/02/17 06:05:28;;;;;;;18.87;4.70;;;;;;;;;;6186257;28;20233;-64
2022/02/17 06:08:48;;;;;;;16.17;5.60;;;;;;;;;;6187447;28;20237;-64
2022/02/17 06:12:09;;;;;;;18.80;6.83;;;;;;;;;;6185683;28;20245;-66
2022/02/17 06:15:30;;;;;;;15.87;5.50;;;;;;;;;;6188407;28;20233;-65
2022/02/17 06:18:51;;;;;;;15.30;5.17;;;;;;;;;;6184984;28;20241;-66
2022/02/17 06:22:12;;;;;;;23.07;8.67;;;;;;;;;;6176280;28;20230;-64
2022/02/17 06:25:33;;;;;;;10.33;3.70;;;;;;;;;;6186145;28;20233;-64
2022/02/17 06:28:53;;;;;;;14.97;5.27;;;;;;;;;;6162259;28;20242;-63
2022/02/17 06:32:14;;;;;;;17.20;4.57;;;;;;;;;;6178095;28;20253;-66
2022/02/17 06:35:36;;;;;;;16.67;4.80;;;;;;;;;;6169707;28;20258;-67
2022/02/17 06:38:58;;;;;;;16.27;4.83;;;;;;;;;;6173885;28;20321;-67
2022/02/17 06:42:22;;;;;;;11.60;4.13;;;;;;;;;;6162228;28;20238;-67
2022/02/17 06:45:43;;;;;;;13.77;5.70;;;;;;;;;;6177468;28;20234;-67
2022/02/17 06:49:04;;;;;;;13.80;4.93;;;;;;;;;;6175031;28;20698;-66
2022/02/17 06:52:24;;;;;;;12.60;5.73;;;;;;;;;;6184712;28;20560;-67
2022/02/17 06:55:47;;;;;;;12.57;5.63;;;;;;;;;;6182315;28;20336;-67
2022/02/17 06:59:08;;;;;;;14.93;4.93;;;;;;;;;;6187527;28;20245;-66
2022/02/17 07:02:28;;;;;;;9.87;3.80;;;;;;;;;;6169528;28;20238;-68
2022/02/17 07:05:49;;;;;;;21.87;6.63;;;;;;;;;;6181054;28;20253;-69
2022/02/17 07:09:10;;;;;;;16.30;5.30;;;;;;;;;;6183260;28;20233;-67
2022/02/17 07:12:32;;;;;;;16.23;5.53;;;;;;;;;;6181685;28;20249;-65
2022/02/17 07:15:53;;;;;;;11.60;3.77;;;;;;;;;;6183170;28;20241;-65
2022/02/17 07:19:14;;;;;;;11.63;4.17;;;;;;;;;;6182168;28;20249;-66
2022/02/17 07:22:34;;;;;;;16.50;6.50;;;;;;;;;;6186763;28;20221;-66
2022/02/17 07:25:55;;;;;;;13.67;5.03;;;;;;;;;;6187840;28;20237;-67
2022/02/17 07:29:18;;;;;;;15.67;3.70;;;;;;;;;;6188300;28;20517;-66
2022/02/17 07:32:40;;;;;;;17.17;5.33;;;;;;;;;;6183366;28;20226;-65
2022/02/17 07:36:01;;;;;;;17.53;4.90;;;;;;;;;;6179044;28;20234;-64
2022/02/17 07:39:22;;;;;;;6.87;3.73;;;;;;;;;;6188864;28;20331;-67
2022/02/17 07:42:45;;;;;;;16.63;4.27;;;;;;;;;;6188625;28;20242;-67
2022/02/17 07:46:07;;;;;;;15.60;4.10;;;;;;;;;;6183250;28;20230;-66
2022/02/17 07:49:27;;;;;;;14.97;3.97;;;;;;;;;;6183655;28;20249;-65
2022/02/17 07:52:48;;;;;;;8.10;2.67;;;;;;;;;;6185472;28;20257;-65
2022/02/17 07:56:09;;;;;;;9.07;3.07;;;;;;;;;;6179363;28;20225;-66
2022/02/17 07:59:29;;;;;;;9.37;3.97;;;;;;;;;;6185266;28;20223;-65
2022/02/17 08:02:52;;;;;;;9.53;2.63;;;;;;;;;;6183230;28;20272;-66
2022/02/17 08:06:12;;;;;;;15.47;5.57;;;;;;;;;;6189149;28;20222;-65
2022/02/17 08:09:34;;;;;;;14.07;4.20;;;;;;;;;;6190800;28;20230;-65
2022/02/17 08:12:54;;;;;;;13.57;3.87;;;;;;;;;;6187105;28;20238;-65
2022/02/17 08:16:15;;;;;;;12.03;4.00;;;;;;;;;;6186352;28;20699;-65
2022/02/17 08:19:37;;;;;;;20.40;5.67;;;;;;;;;;6189645;28;20679;-66
2022/02/17 08:22:57;;;;;;;18.23;4.53;;;;;;;;;;6188091;28;20241;-65
2022/02/17 08:26:18;;;;;;;16.47;4.73;;;;;;;;;;6190899;28;20241;-64
2022/02/17 08:29:39;;;;;;;14.93;5.00;;;;;;;;;;6191305;28;20241;-66
2022/02/17 08:32:59;;;;;;;11.10;3.97;;;;;;;;;;6182439;28;20552;-67
2022/02/17 08:36:21;;;;;;;9.00;4.77;;;;;;;;;;6190006;28;20237;-67
2022/02/17 08:39:42;;;;;;;13.93;4.43;;;;;;;;;;6185433;28;20659;-65
2022/02/17 08:43:09;;;;;;;11.83;4.80;;;;;;;;;;6182155;28;20309;-65
2022/02/17 08:46:30;;;;;;;13.30;3.10;;;;;;;;;;6185021;28;20233;-65
2022/02/17 08:49:50;;;;;;;12.90;4.23;;;;;;;;;;6188253;28;20233;-66
2022/02/17 08:53:12;;;;;;;18.77;6.67;;;;;;;;;;6185534;28;20946;-67
2022/02/17 08:56:33;;;;;;;16.43;4.27;;;;;;;;;;6181985;28;20302;-68
2022/02/17 08:59:53;;;;;;;11.03;4.53;;;;;;;;;;6186571;28;20321;-64
2022/02/17 09:03:14;;;;;;;15.37;4.70;;;;;;;;;;6184373;28;20258;-67
2022/02/17 09:06:35;;;;;;;15.70;5.63;;;;;;;;;;6161658;28;20234;-66
2022/02/17 09:09:57;;;;;;;21.57;5.07;;;;;;;;;;6184734;28;20245;-66
2022/02/17 09:13:18;;;;;;;15.23;4.17;;;;;;;;;;6184204;28;20241;-69
2022/02/17 09:16:39;;;;;;;16.63;5.53;;;;;;;;;;6174835;28;20233;-66
2022/02/17 09:20:00;;;;;;;13.37;5.03;;;;;;;;;;6185538;28;20229;-68
2022/02/17 09:23:23;;;;;;;15.80;5.07;;;;;;;;;;6187828;28;20226;-69
2022/02/17 09:26:46;;;;;;;15.40;3.47;;;;;;;;;;6186778;28;20612;-68
2022/02/17 09:30:07;;;;;;;7.63;3.93;;;;;;;;;;6171682;28;20233;-69
2022/02/17 09:33:27;;;;;;;6.77;3.60;;;;;;;;;;6182285;28;20229;-68
2022/02/17 09:36:48;;;;;;;9.37;3.23;;;;;;;;;;6185859;28;20237;-68
2022/02/17 09:40:10;;;;;;;12.70;3.57;;;;;;;;;;6186133;28;20229;-69
2022/02/17 09:43:32;;;;;;;9.00;3.47;;;;;;;;;;6185426;28;20238;-68
2022/02/17 09:46:52;;;;;;;9.30;2.43;;;;;;;;;;6182174;28;20604;-67
2022/02/17 09:50:14;;;;;;;11.77;3.90;;;;;;;;;;6184874;28;20705;-66
2022/02/17 09:53:34;;;;;;;12.77;3.93;;;;;;;;;;6180433;28;20775;-65
2022/02/17 09:56:55;;;;;;;6.03;2.77;;;;;;;;;;6186951;28;20241;-68
2022/02/17 10:00:18;;;;;;;14.47;3.50;;;;;;;;;;6182068;28;20642;-67
2022/02/17 10:03:39;;;;;;;7.73;3.03;;;;;;;;;;6187226;28;20229;-66
2022/02/17 10:07:01;;;;;;;7.60;3.00;;;;;;;;;;6186809;28;20234;-67
2022/02/17 10:10:23;;;;;;;12.67;3.00;;;;;;;;;;6184352;28;20229;-67
2022/02/17 10:13:58;;;;;;;10.33;3.70;;;;;;;;;;6173200;28;20237;-67
2022/02/17 10:17:20;;;;;;;7.03;2.40;;;;;;;;;;6182099;28;20230;-69
2022/02/17 10:20:54;;;;;;;13.33;3.13;;;;;;;;;;6189129;28;20522;-67
2022/02/17 10:24:30;;;;;;;14.10;4.20;;;;;;;;;;6178603;28;20233;-67
2022/02/17 10:27:51;;;;;;;12.17;2.80;;;;;;;;;;6180334;28;20608;-67
2022/02/17 10:31:21;;;;;;;8.60;3.23;;;;;;;;;;6181762;28;20316;-69
2022/02/17 10:34:43;;;;;;;8.47;3.43;;;;;;;;;;6190626;28;20249;-69
2022/02/17 10:38:05;;;;;;;12.03;3.77;;;;;;;;;;6181551;28;20237;-69
2022/02/17 10:41:43;;;;;;;10.10;2.87;;;;;;;;;;6180853;28;20238;-67
2022/02/17 10:45:19;;;;;;;12.80;4.33;;;;;;;;;;6180775;28;20231;-70
2022/02/17 10:48:45;;;;;;;7.23;2.40;;;;;;;;;;6183250;28;20226;-67
2022/02/17 10:52:07;;;;;;;11.53;3.10;;;;;;;;;;6179925;28;20230;-69
2022/02/17 10:55:28;;;;;;;10.70;3.87;;;;;;;;;;6175160;28;20522;-67
2022/02/17 10:58:50;;;;;;;11.53;4.03;;;;;;;;;;6174481;28;20226;-63
2022/02/17 11:02:12;;;;;;;15.73;4.57;;;;;;;;;;6169704;28;20265;-68
2022/02/17 11:05:33;;;;;;;10.23;3.40;;;;;;;;;;6176580;28;20225;-65
2022/02/17 11:08:55;;;;;;;7.07;2.00;;;;;;;;;;6169304;28;20234;-66
2022/02/17 11:12:16;;;;;;;18.07;3.20;;;;;;;;;;6167777;28;20563;-66
2022/02/17 11:15:38;;;;;;;7.60;2.40;;;;;;;;;;6170786;28;20233;-65
2022/02/17 11:18:58;;;;;;;7.30;2.10;;;;;;;;;;6173949;28;20233;-67
2022/02/17 11:22:20;;;;;;;4.57;2.03;;;;;;;;;;6167222;28;20306;-70
2022/02/17 11:25:42;;;;;;;6.27;2.53;;;;;;;;;;6192493;28;20235;-70
2022/02/17 11:29:25;;;;;;;9.13;1.73;;;;;;;;;;6183469;28;20241;-68
2022/02/17 11:33:06;;;;;;;7.83;2.30;;;;;;;;;;6182388;28;20357;-69
2022/02/17 11:36:32;;;;;;;7.77;3.27;;;;;;;;;;6194917;28;20252;-68
2022/02/17 11:39:54;;;;;;;12.10;1.93;;;;;;;;;;6192482;28;20261;-69
2022/02/17 11:43:27;;;;;;;5.80;1.80;;;;;;;;;;6191127;28;20583;-67
2022/02/17 11:46:50;;;;;;;6.73;2.00;;;;;;;;;;6182213;28;20236;-67
2022/02/17 11:50:25;;;;;;;4.67;2.00;;;;;;;;;;6189846;28;20230;-68
2022/02/17 11:53:47;;;;;;;7.33;3.53;;;;;;;;;;6185166;28;20615;-69
2022/02/17 11:57:31;;;;;;;4.17;2.23;;;;;;;;;;6185591;28;20234;-67
2022/02/17 12:00:53;;;;;;;7.30;2.00;;;;;;;;;;6184527;28;20233;-68
2022/02/17 12:04:16;;;;;;;6.13;2.20;;;;;;;;;;6177112;28;20233;-69
2022/02/17 12:07:36;;;;;;;3.53;1.73;;;;;;;;;;6164746;28;20237;-67
2022/02/17 12:11:16;;;;;;;1.97;1.20;;;;;;;;;;6168939;28;20317;-68
2022/02/17 12:14:37;;;;;;;8.13;2.27;;;;;;;;;;6176625;28;22410;-69
2022/02/17 12:17:58;;;;;;;4.47;1.53;;;;;;;;;;6174943;28;20225;-69
2022/02/17 12:21:21;;;;;;;8.20;2.37;;;;;;;;;;6179200;28;20268;-69
2022/02/17 12:24:44;;;;;;;3.00;1.03;;;;;;;;;;6186212;28;20257;-69
2022/02/17 12:28:06;;;;;;;4.43;1.70;;;;;;;;;;6187824;28;20229;-68
2022/02/17 12:31:37;;;;;;;3.23;1.83;;;;;;;;;;6183703;28;20353;-69
2022/02/17 12:34:59;;;;;;;4.13;1.30;;;;;;;;;;6182592;28;20521;-68
2022/02/17 12:38:22;;;;;;;3.53;1.40;;;;;;;;;;6182215;28;20253;-68
2022/02/17 12:41:58;;;;;;;6.27;1.97;;;;;;;;;;6177172;28;20404;-69
2022/02/17 12:45:31;;;;;;;7.53;2.20;;;;;;;;;;6184082;28;20248;-68
2022/02/17 12:48:52;;;;;;;5.37;2.20;;;;;;;;;;6184018;28;20258;-65
2022/02/17 12:52:14;;;;;;;3.97;1.40;;;;;;;;;;6174064;28;20237;-69
2022/02/17 12:55:42;;;;;;;3.07;1.03;;;;;;;;;;6187804;28;20525;-70
2022/02/17 12:59:04;;;;;;;3.93;1.37;;;;;;;;;;6185629;28;20237;-68
2022/02/17 13:02:25;;;;;;;6.13;1.70;;;;;;;;;;6169789;28;20976;-69
2022/02/17 13:06:17;;;;;;;8.23;2.30;;;;;;;;;;6183281;28;20253;-68
2022/02/17 13:09:31;;;;;;;3.97;1.40;;;;;;;;;;6189416;28;20241;-70
2022/02/17 13:12:56;;;;;;;4.27;2.03;;;;;;;;;;6181872;28;20266;-68
2022/02/17 13:16:18;;;;;;;7.20;1.87;;;;;;;;;;6177993;28;20238;-69
2022/02/17 13:19:41;;;;;;;3.30;2.13;;;;;;;;;;6181699;28;20316;-69
2022/02/17 13:23:16;;;;;;;4.00;1.33;;;;;;;;;;6184816;28;20238;-71
2022/02/17 13:26:39;;;;;;;4.97;2.87;;;;;;;;;;6180187;28;20238;-71
2022/02/17 13:30:00;;;;;;;5.90;1.93;;;;;;;;;;6182802;28;20237;-67
2022/02/17 13:33:27;;;;;;;4.77;1.97;;;;;;;;;;6186204;28;20628;-71
2022/02/17 13:36:48;;;;;;;3.40;1.27;;;;;;;;;;6168814;28;20225;-70
2022/02/17 13:40:09;;;;;;;3.70;1.43;;;;;;;;;;6156867;28;20907;-69
2022/02/17 13:43:43;;;;;;;4.50;1.50;;;;;;;;;;6184140;28;20584;-70
2022/02/17 13:47:05;;;;;;;4.60;1.57;;;;;;;;;;6186431;28;20241;-71
2022/02/17 13:50:26;;;;;;;6.30;1.97;;;;;;;;;;6189016;28;20245;-71
2022/02/17 13:53:49;;;;;;;4.03;1.73;;;;;;;;;;6183025;28;20226;-71
2022/02/17 13:57:09;;;;;;;7.00;1.80;;;;;;;;;;6181765;28;20226;-71
2022/02/17 14:00:32;;;;;;;7.60;2.77;;;;;;;;;;6183887;28;20234;-71
2022/02/17 14:03:53;;;;;;;6.73;1.57;;;;;;;;;;6184427;28;20233;-71
2022/02/17 14:07:13;;;;;;;4.97;1.80;;;;;;;;;;6183266;28;20270;-73
2022/02/17 14:10:33;;;;;;;6.60;2.00;;;;;;;;;;6186727;28;20324;-70
2022/02/17 14:13:54;;;;;;;6.20;1.57;;;;;;;;;;6183049;28;21841;-70
2022/02/17 14:17:18;;;;;;;5.70;3.00;;;;;;;;;;6185263;28;20238;-71
2022/02/17 14:20:39;;;;;;;5.20;1.97;;;;;;;;;;6189550;28;20325;-70
2022/02/17 14:23:59;;;;;;;12.83;2.87;;;;;;;;;;6181462;28;20237;-70
2022/02/17 14:27:19;;;;;;;8.97;3.03;;;;;;;;;;6181906;28;20672;-72
2022/02/17 14:30:44;;;;;;;9.37;3.90;;;;;;;;;;6184702;28;20234;-71
2022/02/17 14:34:07;;;;;;;15.40;4.60;;;;;;;;;;6185197;28;20503;-70
2022/02/17 14:37:29;;;;;;;23.40;5.67;;;;;;;;;;6178823;28;20230;-71
2022/02/17 14:40:50;;;;;;;20.50;6.50;;;;;;;;;;6189781;28;20241;-72
2022/02/17 14:44:11;;;;;;;13.77;3.90;;;;;;;;;;6183731;28;20592;-71
2022/02/17 14:47:31;;;;;;;15.30;4.90;;;;;;;;;;6182384;28;20237;-71
2022/02/17 14:50:54;;;;;;;15.80;5.70;;;;;;;;;;6184387;28;20296;-70
2022/02/17 14:54:14;;;;;;;15.83;4.50;;;;;;;;;;6181823;28;20230;-70
2022/02/17 14:57:35;;;;;;;23.80;8.80;;;;;;;;;;6184527;28;20250;-70
2022/02/17 15:00:55;;;;;;;13.20;4.90;;;;;;;;;;6183783;28;20265;-70
2022/02/17 15:04:16;;;;;;;9.40;3.40;;;;;;;;;;6178209;28;20234;-70
2022/02/17 15:07:38;;;;;;;18.17;4.83;;;;;;;;;;6180459;28;20246;-70
2022/02/17 15:11:00;;;;;;;12.13;4.10;;;;;;;;;;6185790;28;20237;-71
2022/02/17 15:14:20;;;;;;;18.03;4.80;;;;;;;;;;6180785;28;20230;-73
2022/02/17 15:17:41;;;;;;;9.70;2.97;;;;;;;;;;6186042;28;20249;-71
2022/02/17 15:21:02;;;;;;;7.13;2.53;;;;;;;;;;6183091;28;20238;-72
2022/02/17 15:24:24;;;;;;;8.93;3.27;;;;;;;;;;6180246;28;20222;-72
2022/02/17 15:27:46;;;;;;;12.70;4.10;;;;;;;;;;6182792;28;20230;-69
2022/02/17 15:31:07;;;;;;;16.47;3.80;;;;;;;;;;6182161;28;20234;-71
2022/02/17 15:34:27;;;;;;;12.17;4.13;;;;;;;;;;6190333;28;20831;-69
2022/02/17 15:37:49;;;;;;;16.17;4.47;;;;;;;;;;6190878;28;20234;-70
2022/02/17 15:41:10;;;;;;;15.20;5.33;;;;;;;;;;6183401;28;20234;-70
2022/02/17 15:44:33;;;;;;;14.87;6.47;;;;;;;;;;6189033;28;20233;-70
2022/02/17 15:47:54;;;;;;;23.07;5.53;;;;;;;;;;6187905;28;20237;-69
2022/02/17 15:51:14;;;;;;;15.23;4.40;;;;;;;;;;6185768;28;20233;-72
2022/02/17 15:54:36;;;;;;;9.63;3.13;;;;;;;;;;6183333;28;20222;-71
2022/02/17 15:57:58;;;;;;;12.23;4.40;;;;;;;;;;6186905;28;20234;-71
2022/02/17 16:01:19;;;;;;;6.00;2.83;;;;;;;;;;6189886;28;20261;-72
2022/02/17 16:04:40;;;;;;;4.33;2.13;;;;;;;;;;6186158;28;20234;-71
2022/02/17 16:08:00;;;;;;;9.53;4.23;;;;;;;;;;6188829;28;20234;-72
2022/02/17 16:11:21;;;;;;;13.67;5.40;;;;;;;;;;6189584;28;20238;-73
2022/02/17 16:14:43;;;;;;;11.47;3.70;;;;;;;;;;6189042;28;20229;-73
2022/02/17 16:18:04;;;;;;;9.63;3.30;;;;;;;;;;6194088;28;20862;-73
2022/02/17 16:21:24;;;;;;;14.10;4.33;;;;;;;;;;6193118;28;20234;-73
2022/02/17 16:24:45;;;;;;;14.73;4.77;;;;;;;;;;6186536;28;20245;-74
2022/02/17 16:28:06;;;;;;;19.77;7.07;;;;;;;;;;6185788;28;20683;-73
2022/02/17 16:31:27;;;;;;;12.00;4.10;;;;;;;;;;6188557;28;20242;-73
2022/02/17 16:34:48;;;;;;;13.67;6.03;;;;;;;;;;6189538;28;20246;-73
2022/02/17 16:38:10;;;;;;;21.07;5.10;;;;;;;;;;6185102;28;20330;-73
2022/02/17 16:41:35;;;;;;;16.13;4.80;;;;;;;;;;6191493;28;20288;-71
2022/02/17 16:44:56;;;;;;;16.57;5.70;;;;;;;;;;6193017;28;20241;-72
2022/02/17 16:48:18;;;;;;;11.90;3.63;;;;;;;;;;6183042;28;20738;-73
2022/02/17 16:51:39;;;;;;;16.43;4.43;;;;;;;;;;6188218;28;20612;-73
2022/02/17 16:54:59;;;;;;;20.03;7.53;;;;;;;;;;6191303;28;20296;-73
2022/02/17 16:58:20;;;;;;;18.50;5.80;;;;;;;;;;6181123;28;20234;-75
2022/02/17 17:01:41;;;;;;;18.17;5.43;;;;;;;;;;6189605;28;20242;-74
2022/02/17 17:05:04;;;;;;;15.27;6.00;;;;;;;;;;6191436;28;20621;-74
2022/02/17 17:08:24;;;;;;;16.20;5.20;;;;;;;;;;6186058;28;20245;-73
2022/02/17 17:11:45;;;;;;;18.93;5.40;;;;;;;;;;6190054;28;20246;-73
2022/02/17 17:15:06;;;;;;;13.00;5.57;;;;;;;;;;6186268;28;20230;-71
2022/02/17 17:18:27;;;;;;;15.47;4.57;;;;;;;;;;6182966;28;20237;-72
2022/02/17 17:21:49;;;;;;;17.53;4.73;;;;;;;;;;6193451;28;20233;-72
2022/02/17 17:25:10;;;;;;;13.33;4.50;;;;;;;;;;6180609;28;20234;-71
2022/02/17 17:28:31;;;;;;;14.93;5.13;;;;;;;;;;6183189;28;20238;-71
2022/02/17 17:31:54;;;;;;;13.23;5.77;;;;;;;;;;6185520;28;20246;-70
2022/02/17 17:35:15;;;;;;;15.70;5.20;;;;;;;;;;6190463;28;20229;-71
2022/02/17 17:38:40;;;;;;;16.77;5.97;;;;;;;;;;6190199;28;20624;-70
2022/02/17 17:42:01;;;;;;;16.20;4.97;;;;;;;;;;6188555;28;20549;-70
2022/02/17 17:45:28;;;;;;;14.80;4.00;;;;;;;;;;6192143;28;20229;-71
2022/02/17 17:48:50;;;;;;;18.67;6.20;;;;;;;;;;6190529;28;20230;-71
2022/02/17 17:52:11;;;;;;;13.90;4.70;;;;;;;;;;6190535;28;20238;-70
2022/02/17 17:55:38;;;;;;;14.47;4.83;;;;;;;;;;6187307;28;20226;-71
2022/02/17 17:58:59;;;;;;;15.87;5.47;;;;;;;;;;6181051;28;20509;-69
2022/02/17 18:02:22;;;;;;;21.07;6.23;;;;;;;;;;6184388;28;20266;-69
2022/02/17 18:05:42;;;;;;;16.10;4.83;;;;;;;;;;6473054;23;20233;-70
2022/02/17 18:09:03;;;;;;;15.97;5.70;;;;;;;;;;6237699;28;20244;-71
2022/02/17 18:12:25;;;;;;;22.87;6.50;;;;;;;;;;6221102;28;20269;-70
2022/02/17 18:15:45;;;;;;;18.63;6.43;;;;;;;;;;6239721;28;20313;-70
2022/02/17 18:19:09;;;;;;;16.47;5.57;;;;;;;;;;6237284;28;20233;-69
2022/02/17 18:22:29;;;;;;;19.57;5.93;;;;;;;;;;6236280;28;20225;-71
2022/02/17 18:25:50;;;;;;;30.77;7.83;;;;;;;;;;6238421;28;20486;-70
2022/02/17 18:29:13;;;;;;;16.90;5.20;;;;;;;;;;6239264;28;20229;-70
2022/02/17 18:32:33;;;;;;;18.07;5.73;;;;;;;;;;6237547;28;20286;-70
2022/02/17 18:35:54;;;;;;;15.57;4.50;;;;;;;;;;6235299;28;20217;-70
2022/02/17 18:39:14;;;;;;;21.83;6.57;;;;;;;;;;6236352;28;20224;-69
2022/02/17 18:42:35;;;;;;;14.03;4.37;;;;;;;;;;6234451;28;20252;-70
2022/02/17 18:45:57;;;;;;;21.07;5.63;;;;;;;;;;6237469;28;20233;-70
2022/02/17 18:49:17;;;;;;;14.90;4.63;;;;;;;;;;6236918;28;20545;-70
2022/02/17 18:52:38;;;;;;;14.13;4.93;;;;;;;;;;6235678;28;20236;-70
2022/02/17 18:55:58;;;;;;;18.63;6.10;;;;;;;;;;6242598;28;20240;-71
2022/02/17 18:59:19;;;;;;;17.47;5.87;;;;;;;;;;6243072;28;20228;-71
2022/02/17 19:02:41;;;;;;;13.73;5.23;;;;;;;;;;6238728;28;20262;-69
2022/02/17 19:06:03;;;;;;;12.77;4.40;;;;;;;;;;6223076;28;20240;-70
2022/02/17 19:09:24;;;;;;;25.20;5.60;;;;;;;;;;6207323;28;20237;-69
2022/02/17 19:12:45;;;;;;;20.40;5.70;;;;;;;;;;6213689;28;20827;-69
2022/02/17 19:16:07;;;;;;;18.17;5.83;;;;;;;;;;6213614;28;20514;-70
2022/02/17 19:19:29;;;;;;;21.50;5.70;;;;;;;;;;6215454;28;20590;-70
2022/02/17 19:22:49;;;;;;;11.80;4.97;;;;;;;;;;6213413;28;20232;-70
2022/02/17 19:26:10;;;;;;;16.80;4.23;;;;;;;;;;6216665;28;20335;-69
2022/02/17 19:29:31;;;;;;;23.73;5.70;;;;;;;;;;6216302;28;20772;-72
2022/02/17 19:32:53;;;;;;;15.20;5.30;;;;;;;;;;6216217;28;20638;-71
2022/02/17 19:36:14;;;;;;;22.53;6.13;;;;;;;;;;6209290;28;20324;-71
2022/02/17 19:39:35;;;;;;;22.10;7.60;;;;;;;;;;6217960;28;20236;-71
2022/02/17 19:42:55;;;;;;;15.47;5.17;;;;;;;;;;6211747;28;20232;-71
2022/02/17 19:46:16;;;;;;;18.60;6.50;;;;;;;;;;6204011;28;20595;-70
2022/02/17 19:49:37;;;;;;;14.80;5.53;;;;;;;;;;6221940;28;20268;-70
2022/02/17 19:52:59;;;;;;;14.60;5.33;;;;;;;;;;6219728;28;20237;-70
2022/02/17 19:56:20;;;;;;;17.07;5.37;;;;;;;;;;6211380;28;20233;-70
2022/02/17 19:59:41;;;;;;;20.27;6.43;;;;;;;;;;6220480;28;20236;-71
2022/02/17 20:03:04;;;;;;;16.20;5.47;;;;;;;;;;6225414;28;20225;-70
2022/02/17 20:06:24;;;;;;;15.70;4.87;;;;;;;;;;6210037;28;20689;-70